BIENTÔT MET'MAP
version 2.0 !

Prévue avant fin octobre,
la nouvelle version sera
plus belle, plus complète
et hébergée sur un serveur
3 fois plus puissant...
et toujours gratuite !


Pas compatible ?
Essayez la version Mobile !

SE CONNECTER : | S'inscrire | Disclaimer | Découvrir Orbifly |
Code OACI :
Lgende : VFR VFR Marginal IFR IFR Intensif IFR Trs Intensif
Visi :
Plafond :
>= 8 km
>= 3000ft
5 8 km
1000 3000 ft
1500m 5 km
500 1000 ft
800 1500m
200 500 ft
< 800m
< 200 ft

METAR - LIBR Casale Arpt. Brindisi - 05 Apr 2020 12:23 UTC - Data Source NOAA   


- Altitude de l'aérodrome : 47 ft
- Code IATA : BDS
- Pas de NOTAMs connus.


LIBR - Casale Arpt. Brindisi

Dernier METAR connu : 2015/08/11 07:45 LIBR 110745Z 09009KT 9999 SCT020 30/24 Q1011 NOSIG
TAF TAF LIBR
Valide du 05 à 06h jusqu'au 06 à 06h UTC


050513Z 0506/0606 03018G30KT CAVOK

Source NOAA


MET'MAP, la Météo Aéronautique d'un coup d'oeil ! - Copyright ORBIFLY Décembre 2007

Développement & Programmation : Alexandra Zaïnal
Co-Développement : Marc-Olivier Méhu
Soutien technique & logistique : Manuel Goepfert
Conception & Financement : Baudouin d'Aumeries